createdAt,value
2022-10-23T00:03:10.435Z,12.80
2022-10-23T00:08:12.834Z,12.80
2022-10-23T00:13:15.121Z,12.70
2022-10-23T00:18:17.419Z,12.70
2022-10-23T00:23:19.734Z,12.60
2022-10-23T00:28:22.031Z,12.70
2022-10-23T00:33:24.348Z,12.60
2022-10-23T00:38:26.717Z,12.50
2022-10-23T00:43:30.862Z,12.50
2022-10-23T00:48:33.462Z,12.50
2022-10-23T00:53:35.762Z,12.50
2022-10-23T00:58:38.101Z,12.50
2022-10-23T01:03:40.401Z,12.50
2022-10-23T01:08:59.999Z,12.50
2022-10-23T01:14:23.435Z,12.50
2022-10-23T01:19:59.821Z,12.40
2022-10-23T01:25:23.792Z,12.40
2022-10-23T01:30:26.389Z,12.40
2022-10-23T01:35:40.657Z,12.40
2022-10-23T01:41:02.896Z,12.40
2022-10-23T01:46:10.615Z,12.30
2022-10-23T01:51:16.808Z,12.20
2022-10-23T01:56:25.346Z,12.20
2022-10-23T02:01:30.681Z,12.20
2022-10-23T02:06:33.197Z,12.10
2022-10-23T02:11:42.819Z,12.20
2022-10-23T02:16:52.773Z,12.00
2022-10-23T02:22:24.601Z,12.00
2022-10-23T02:27:36.172Z,11.90
2022-10-23T02:32:43.836Z,11.90
2022-10-23T02:37:59.066Z,11.90
2022-10-23T02:43:14.811Z,11.80
2022-10-23T02:48:33.760Z,11.70
2022-10-23T02:53:52.948Z,11.70
2022-10-23T02:59:01.515Z,11.60
2022-10-23T03:04:06.780Z,11.50
2022-10-23T03:09:09.845Z,11.40
2022-10-23T03:14:14.369Z,11.30
2022-10-23T03:19:16.772Z,11.30
2022-10-23T03:24:19.131Z,11.20
2022-10-23T03:29:21.851Z,11.20
2022-10-23T03:34:25.971Z,11.30
2022-10-23T03:39:29.154Z,11.30
2022-10-23T03:44:34.113Z,11.30
2022-10-23T03:49:36.838Z,11.40
2022-10-23T03:54:41.867Z,11.40
2022-10-23T03:59:46.158Z,11.50
2022-10-23T04:04:48.725Z,11.40
2022-10-23T04:09:51.239Z,11.40
2022-10-23T04:14:53.757Z,11.40
2022-10-23T04:19:57.414Z,11.40
2022-10-23T04:24:59.821Z,11.50
2022-10-23T04:30:03.756Z,11.50
2022-10-23T04:35:07.080Z,11.50
2022-10-23T04:40:10.061Z,11.40
2022-10-23T04:45:13.810Z,11.40
2022-10-23T04:50:17.827Z,11.50
2022-10-23T04:55:38.613Z,11.40
2022-10-23T05:00:56.838Z,11.50
2022-10-23T05:06:01.467Z,11.50
2022-10-23T05:11:14.640Z,11.50
2022-10-23T05:16:43.948Z,11.50
2022-10-23T05:21:49.685Z,11.40
2022-10-23T05:26:54.836Z,11.40
2022-10-23T05:32:02.818Z,11.50
2022-10-23T05:37:09.099Z,11.40
2022-10-23T05:42:16.176Z,11.30
2022-10-23T05:47:18.592Z,11.40
2022-10-23T05:52:41.423Z,11.30
2022-10-23T05:57:49.905Z,11.30
2022-10-23T06:03:00.701Z,11.30
2022-10-23T06:08:13.980Z,11.40
2022-10-23T06:13:17.245Z,11.50
2022-10-23T06:18:19.626Z,11.40
2022-10-23T06:23:39.135Z,11.40
2022-10-23T06:28:53.234Z,11.50
2022-10-23T06:33:56.229Z,11.50
2022-10-23T06:44:22.167Z,11.70
2022-10-23T06:49:29.821Z,11.70
2022-10-23T06:54:34.062Z,11.80
2022-10-23T07:00:00.950Z,11.80
2022-10-23T07:05:04.034Z,11.80
2022-10-23T07:10:07.122Z,11.80
2022-10-23T07:15:17.967Z,11.80
2022-10-23T07:20:20.773Z,11.80
2022-10-23T07:25:26.673Z,11.80
2022-10-23T07:30:29.376Z,12.00
2022-10-23T07:35:35.571Z,12.10
2022-10-23T07:40:45.473Z,12.20
2022-10-23T07:45:50.774Z,12.50
2022-10-23T07:51:12.223Z,12.40
2022-10-23T07:56:26.261Z,12.40
2022-10-23T08:01:51.519Z,12.40
2022-10-23T08:06:56.886Z,12.50
2022-10-23T08:12:01.784Z,12.80
2022-10-23T08:17:09.889Z,12.60
2022-10-23T08:22:30.733Z,12.80
2022-10-23T08:27:33.922Z,12.70
2022-10-23T08:32:36.410Z,13.00
2022-10-23T08:37:41.507Z,13.00
2022-10-23T08:42:53.439Z,13.20
2022-10-23T08:48:01.843Z,13.50
2022-10-23T08:54:01.832Z,13.50
2022-10-23T08:59:32.940Z,13.40
2022-10-23T09:04:35.458Z,13.40
2022-10-23T09:09:52.696Z,13.50
2022-10-23T09:14:57.689Z,13.70
2022-10-23T09:20:05.313Z,13.90
2022-10-23T09:25:17.435Z,14.20
2022-10-23T09:30:32.829Z,14.30
2022-10-23T09:35:35.099Z,14.30
2022-10-23T09:40:43.602Z,14.30
2022-10-23T09:45:58.059Z,14.70
2022-10-23T09:51:20.900Z,14.70
2022-10-23T09:56:36.436Z,14.60
2022-10-23T10:01:54.625Z,14.80
2022-10-23T10:07:21.151Z,15.20
2022-10-23T10:12:26.246Z,15.40
2022-10-23T10:17:53.481Z,15.70
2022-10-23T10:23:22.526Z,16.20
2022-10-23T10:28:32.273Z,16.20
2022-10-23T10:34:03.955Z,16.30
2022-10-23T10:39:19.422Z,16.20
2022-10-23T10:44:32.393Z,16.20
2022-10-23T10:50:02.438Z,16.40
2022-10-23T10:55:32.047Z,16.40
2022-10-23T11:00:35.534Z,16.30
2022-10-23T11:05:47.328Z,16.10
2022-10-23T11:10:54.428Z,16.10
2022-10-23T11:16:01.743Z,16.30
2022-10-23T11:21:19.324Z,16.20
2022-10-23T11:27:10.945Z,16.20
2022-10-23T11:32:40.668Z,16.40
2022-10-23T11:37:43.261Z,16.50
2022-10-23T11:42:48.107Z,16.80
2022-10-23T11:48:02.454Z,16.80
2022-10-23T11:53:23.258Z,16.80
2022-10-23T11:58:32.107Z,16.90
2022-10-23T12:03:49.671Z,16.90
2022-10-23T12:08:56.339Z,17.20
2022-10-23T12:13:58.663Z,17.40
2022-10-23T12:19:19.211Z,17.60
2022-10-23T12:24:39.864Z,17.70
2022-10-23T12:29:53.287Z,17.40
2022-10-23T12:35:25.505Z,17.50
2022-10-23T12:40:30.136Z,17.70
2022-10-23T12:45:38.553Z,17.70
2022-10-23T12:50:40.913Z,17.60
2022-10-23T12:55:55.969Z,17.40
2022-10-23T13:01:04.067Z,17.60
2022-10-23T13:06:06.829Z,17.40
2022-10-23T13:11:17.993Z,17.40
2022-10-23T13:16:23.020Z,17.50
2022-10-23T13:21:29.577Z,17.60
2022-10-23T13:26:45.125Z,17.60
2022-10-23T13:31:48.714Z,17.30
2022-10-23T13:36:56.213Z,17.30
2022-10-23T13:42:11.014Z,17.20
2022-10-23T13:47:14.440Z,17.00
2022-10-23T13:52:22.195Z,17.10
2022-10-23T13:57:24.468Z,16.90
2022-10-23T14:02:26.791Z,17.00
2022-10-23T14:07:29.132Z,17.00
2022-10-23T14:12:31.480Z,16.90
2022-10-23T14:17:35.148Z,16.90
2022-10-23T14:22:37.456Z,16.90
2022-10-23T14:27:39.703Z,16.80
2022-10-23T14:32:42.631Z,16.90
2022-10-23T14:37:45.513Z,16.80
2022-10-23T14:42:48.230Z,16.70
2022-10-23T14:47:50.632Z,16.50
2022-10-23T14:52:53.310Z,16.30
2022-10-23T14:57:56.262Z,16.20
2022-10-23T15:02:58.611Z,16.10
2022-10-23T15:08:01.723Z,15.90
2022-10-23T15:13:04.086Z,15.80
2022-10-23T15:18:06.663Z,15.60
2022-10-23T15:23:08.993Z,15.50
2022-10-23T15:28:11.273Z,15.50
2022-10-23T15:33:17.721Z,15.20
2022-10-23T15:38:22.871Z,15.00
2022-10-23T15:43:25.141Z,14.80
2022-10-23T15:48:27.498Z,14.70
2022-10-23T15:53:29.833Z,14.50
2022-10-23T15:58:32.134Z,14.40
2022-10-23T16:03:36.089Z,14.30
2022-10-23T16:08:39.306Z,14.30
2022-10-23T16:13:42.888Z,14.20
2022-10-23T16:18:46.451Z,14.10
2022-10-23T16:23:49.618Z,13.90
2022-10-23T16:28:59.979Z,13.70
2022-10-23T16:34:03.197Z,13.60
2022-10-23T16:39:07.293Z,13.60
2022-10-23T16:44:29.797Z,13.50
2022-10-23T16:49:34.433Z,13.40
2022-10-23T16:54:36.829Z,13.20
2022-10-23T16:59:39.118Z,13.10
2022-10-23T17:04:41.393Z,13.10
2022-10-23T17:09:47.236Z,13.00
2022-10-23T17:14:49.549Z,12.90
2022-10-23T17:19:51.815Z,12.80
2022-10-23T17:24:54.331Z,12.90
2022-10-23T17:29:56.838Z,12.70
2022-10-23T17:34:59.123Z,12.60
2022-10-23T17:40:02.609Z,12.60
2022-10-23T17:45:05.306Z,12.60
2022-10-23T17:50:09.519Z,12.50
2022-10-23T17:55:11.832Z,12.50
2022-10-23T18:00:14.347Z,12.40
2022-10-23T18:05:16.680Z,12.30
2022-10-23T18:10:19.214Z,12.20
2022-10-23T18:15:21.569Z,12.20
2022-10-23T18:20:23.853Z,12.20
2022-10-23T18:25:26.127Z,12.00
2022-10-23T18:30:28.592Z,12.00
2022-10-23T18:35:35.036Z,12.00
2022-10-23T18:40:38.778Z,11.90
2022-10-23T18:45:42.626Z,11.90
2022-10-23T18:50:44.876Z,11.80
2022-10-23T18:55:49.418Z,11.90
2022-10-23T19:00:51.744Z,11.80
2022-10-23T19:05:54.030Z,11.80
2022-10-23T19:11:00.176Z,11.70
2022-10-23T19:16:23.024Z,11.70
2022-10-23T19:21:31.374Z,11.80
2022-10-23T19:26:35.850Z,11.60
2022-10-23T19:31:38.973Z,11.60
2022-10-23T19:36:41.248Z,11.60
2022-10-23T19:41:43.813Z,11.60
2022-10-23T19:46:46.669Z,11.70
2022-10-23T19:51:51.221Z,11.60
2022-10-23T19:56:53.743Z,11.60
2022-10-23T20:01:56.242Z,11.60
2022-10-23T20:06:58.659Z,11.50
2022-10-23T20:12:01.423Z,11.60
2022-10-23T20:17:03.866Z,11.60
2022-10-23T20:22:08.808Z,11.60
2022-10-23T20:27:13.765Z,11.60
2022-10-23T20:32:16.737Z,11.50
2022-10-23T20:37:19.051Z,11.50
2022-10-23T20:42:21.459Z,11.40
2022-10-23T20:47:23.997Z,11.30
2022-10-23T20:52:29.433Z,11.30
2022-10-23T20:57:31.810Z,11.30
2022-10-23T21:02:34.188Z,11.40
2022-10-23T21:07:36.520Z,11.30
2022-10-23T21:12:38.782Z,11.40
2022-10-23T21:17:41.314Z,11.30
2022-10-23T21:22:44.159Z,11.30
2022-10-23T21:27:46.957Z,11.20
2022-10-23T21:32:49.361Z,11.10
2022-10-23T21:37:51.640Z,11.00
2022-10-23T21:42:54.684Z,11.00
2022-10-23T21:47:56.944Z,11.00
2022-10-23T21:52:59.237Z,10.80
2022-10-23T21:58:01.483Z,10.80
2022-10-23T22:03:03.875Z,10.80
2022-10-23T22:08:06.156Z,10.70
2022-10-23T22:13:08.494Z,10.80
2022-10-23T22:18:10.763Z,10.70
2022-10-23T22:23:13.064Z,10.70
2022-10-23T22:28:15.325Z,10.70
2022-10-23T22:33:17.580Z,10.60
2022-10-23T22:38:19.843Z,10.60
2022-10-23T22:43:22.161Z,10.60
2022-10-23T22:48:24.417Z,10.60
2022-10-23T22:53:27.139Z,10.70
2022-10-23T22:58:29.411Z,10.70
2022-10-23T23:03:31.917Z,10.90
2022-10-23T23:08:35.304Z,10.90
2022-10-23T23:13:37.674Z,10.90
2022-10-23T23:18:39.930Z,10.90
2022-10-23T23:23:42.373Z,10.90
2022-10-23T23:28:46.257Z,10.90
2022-10-23T23:33:49.159Z,11.00
2022-10-23T23:38:52.224Z,10.80
2022-10-23T23:43:56.386Z,10.70
2022-10-23T23:48:58.633Z,10.70
2022-10-23T23:54:00.948Z,10.70
2022-10-23T23:59:03.306Z,10.60
